createdAt,value
2022-09-12T00:06:56.384Z,6.43
2022-09-12T00:17:00.741Z,5.82
2022-09-12T00:22:02.871Z,5.53
2022-09-12T00:32:07.166Z,5.65
2022-09-12T00:37:09.308Z,5.75
2022-09-12T00:42:12.831Z,5.30
2022-09-12T00:47:20.951Z,5.57
2022-09-12T00:52:37.617Z,4.57
2022-09-12T00:58:02.425Z,4.95
2022-09-12T01:03:09.159Z,5.75
2022-09-12T01:08:11.650Z,5.18
2022-09-12T01:13:14.462Z,5.15
2022-09-12T01:18:37.715Z,5.93
2022-09-12T01:24:08.071Z,5.60
2022-09-12T01:29:31.926Z,5.20
2022-09-12T01:34:50.097Z,5.38
2022-09-12T01:40:19.383Z,5.72
2022-09-12T01:45:32.978Z,6.18
2022-09-12T01:50:52.935Z,6.75
2022-09-12T01:56:02.519Z,6.80
2022-09-12T02:01:22.472Z,6.75
2022-09-12T02:06:32.140Z,7.72
2022-09-12T02:11:39.697Z,6.90
2022-09-12T02:17:08.003Z,6.70
2022-09-12T02:22:15.773Z,7.05
2022-09-12T02:27:31.133Z,7.07
2022-09-12T02:33:02.057Z,7.75
2022-09-12T02:38:13.447Z,7.25
2022-09-12T02:43:15.655Z,8.33
2022-09-12T02:48:30.556Z,8.30
2022-09-12T02:53:33.950Z,7.80
2022-09-12T02:58:35.999Z,7.97
2022-09-12T03:04:27.137Z,8.57
2022-09-12T03:09:53.991Z,8.85
2022-09-12T03:15:08.137Z,9.90
2022-09-12T03:20:36.886Z,9.18
2022-09-12T03:25:47.630Z,9.00
2022-09-12T03:30:54.854Z,9.57
2022-09-12T03:35:57.263Z,9.43
2022-09-12T03:41:01.028Z,11.35
2022-09-12T03:46:03.180Z,10.05
2022-09-12T03:51:08.775Z,9.57
2022-09-12T03:56:12.773Z,10.40
2022-09-12T04:01:18.079Z,9.35
2022-09-12T04:06:22.593Z,10.00
2022-09-12T04:11:24.659Z,9.00
2022-09-12T04:16:27.049Z,9.02
2022-09-12T04:21:29.310Z,7.78
2022-09-12T04:36:36.398Z,8.43
2022-09-12T04:41:39.914Z,7.60
2022-09-12T04:46:45.552Z,8.35
2022-09-12T04:51:47.820Z,9.13
2022-09-12T04:56:52.519Z,8.05
2022-09-12T05:01:54.696Z,8.52
2022-09-12T05:12:04.183Z,7.78
2022-09-12T05:17:07.356Z,8.00
2022-09-12T05:32:14.067Z,7.97
2022-09-12T05:42:18.183Z,7.82
2022-09-12T05:52:22.310Z,7.90
2022-09-12T05:57:24.335Z,7.82
2022-09-12T06:07:29.515Z,8.07
2022-09-12T06:12:31.656Z,8.32
2022-09-12T06:17:33.725Z,7.88
2022-09-12T06:27:37.913Z,8.38
2022-09-12T06:32:40.009Z,7.38
2022-09-12T06:42:46.307Z,6.35
2022-09-12T06:47:56.671Z,6.50
2022-09-12T06:52:58.710Z,6.07
2022-09-12T07:03:02.956Z,6.00
2022-09-12T07:13:07.129Z,5.13
2022-09-12T07:23:12.639Z,4.82
2022-09-12T07:33:17.785Z,5.20
2022-09-12T07:38:23.204Z,5.07
2022-09-12T07:43:25.595Z,4.88
2022-09-12T07:48:28.547Z,4.95
2022-09-12T07:53:37.011Z,4.93
2022-09-12T07:58:41.105Z,4.57
2022-09-12T08:03:44.845Z,5.18
2022-09-12T08:08:48.551Z,5.05
2022-09-12T08:13:55.246Z,5.65
2022-09-12T08:19:00.037Z,5.85
2022-09-12T08:24:05.199Z,7.38
2022-09-12T08:29:07.245Z,8.50
2022-09-12T08:34:09.789Z,9.65
2022-09-12T08:39:30.358Z,10.55
2022-09-12T08:44:48.063Z,11.00
2022-09-12T08:49:56.648Z,12.30
2022-09-12T08:54:58.954Z,12.10
2022-09-12T09:00:04.935Z,13.43
2022-09-12T09:05:22.044Z,13.05
2022-09-12T09:10:49.928Z,12.65
2022-09-12T09:16:21.771Z,12.98
2022-09-12T09:21:33.075Z,12.32
2022-09-12T09:26:46.632Z,13.10
2022-09-12T09:31:53.423Z,11.48
2022-09-12T09:37:01.722Z,10.60
2022-09-12T09:42:22.708Z,11.07
2022-09-12T09:47:24.878Z,11.02
2022-09-12T09:52:30.925Z,11.35
2022-09-12T09:57:36.378Z,10.80
2022-09-12T10:02:38.797Z,10.45
2022-09-12T10:07:50.355Z,10.75
2022-09-12T10:13:07.483Z,10.50
2022-09-12T10:18:10.086Z,9.88
2022-09-12T10:23:35.599Z,9.27
2022-09-12T10:28:40.930Z,10.45
2022-09-12T10:33:52.929Z,8.93
2022-09-12T10:44:16.556Z,7.95
2022-09-12T10:49:26.697Z,9.23
2022-09-12T10:54:28.839Z,8.82
2022-09-12T10:59:40.308Z,8.43
2022-09-12T11:05:04.079Z,7.57
2022-09-12T11:10:35.645Z,8.20
2022-09-12T11:15:48.656Z,7.65
2022-09-12T11:21:21.875Z,8.45
2022-09-12T11:26:42.020Z,10.13
2022-09-12T11:31:44.006Z,8.57
2022-09-12T11:37:18.192Z,8.52
2022-09-12T11:42:36.493Z,8.02
2022-09-12T11:47:40.973Z,7.85
2022-09-12T11:52:43.069Z,7.68
2022-09-12T11:57:55.894Z,8.23
2022-09-12T12:03:07.135Z,8.18
2022-09-12T12:08:11.056Z,8.73
2022-09-12T12:13:33.381Z,7.55
2022-09-12T12:18:40.456Z,8.10
2022-09-12T12:24:08.122Z,7.70
2022-09-12T12:29:22.317Z,7.00
2022-09-12T12:34:42.906Z,7.05
2022-09-12T12:39:52.030Z,6.38
2022-09-12T12:44:54.107Z,6.15
2022-09-12T12:55:05.744Z,5.18
2022-09-12T13:00:25.382Z,5.53
2022-09-12T13:05:30.835Z,4.97
2022-09-12T13:10:33.486Z,4.50
2022-09-12T13:15:35.599Z,4.18
2022-09-12T13:20:54.420Z,4.18
2022-09-12T13:26:01.951Z,4.40
2022-09-12T13:31:09.970Z,4.35
2022-09-12T13:36:40.041Z,3.90
2022-09-12T13:42:03.388Z,3.95
2022-09-12T13:47:05.720Z,4.07
2022-09-12T13:52:21.507Z,4.10
2022-09-12T13:57:37.743Z,4.10
2022-09-12T14:02:40.721Z,3.50
2022-09-12T14:07:54.445Z,3.92
2022-09-12T14:12:57.599Z,3.83
2022-09-12T14:18:03.424Z,3.30
2022-09-12T14:23:29.187Z,3.40
2022-09-12T14:28:33.040Z,3.28
2022-09-12T14:33:52.955Z,3.90
2022-09-12T14:39:04.804Z,3.00
2022-09-12T14:44:14.441Z,3.47
2022-09-12T14:49:21.401Z,3.50
2022-09-12T14:54:30.342Z,4.22
2022-09-12T14:59:35.578Z,3.50
2022-09-12T15:04:42.595Z,2.95
2022-09-12T15:09:47.338Z,2.85
2022-09-12T15:14:49.751Z,2.97
2022-09-12T15:19:51.917Z,3.30
2022-09-12T15:29:56.607Z,2.88
2022-09-12T15:34:58.831Z,3.08
2022-09-12T15:40:01.343Z,3.70
2022-09-12T15:45:17.558Z,4.05
2022-09-12T15:50:20.207Z,5.75
2022-09-12T15:55:25.322Z,3.03
2022-09-12T16:00:27.514Z,2.60
2022-09-12T16:15:34.221Z,7.13
2022-09-12T16:20:40.127Z,3.00
2022-09-12T16:25:43.051Z,3.03
2022-09-12T16:30:55.599Z,4.30
2022-09-12T16:41:06.717Z,2.92
2022-09-12T16:46:10.507Z,2.70
2022-09-12T16:51:13.182Z,3.15
2022-09-12T16:56:15.840Z,3.03
2022-09-12T17:01:20.608Z,2.70
2022-09-12T17:06:23.987Z,3.20
2022-09-12T17:11:32.211Z,2.50
2022-09-12T17:16:51.476Z,2.92
2022-09-12T17:21:54.451Z,8.98
2022-09-12T17:26:57.298Z,3.25
2022-09-12T17:31:59.646Z,2.92
2022-09-12T17:37:02.027Z,3.67
2022-09-12T17:42:04.668Z,2.42
2022-09-12T17:47:07.072Z,3.50
2022-09-12T17:52:09.568Z,3.55
2022-09-12T17:57:11.875Z,3.17
2022-09-12T18:02:14.564Z,5.80
2022-09-12T18:07:18.853Z,5.97
2022-09-12T18:12:21.623Z,5.47
2022-09-12T18:17:27.495Z,4.65
2022-09-12T18:22:29.598Z,3.30
2022-09-12T18:32:33.964Z,4.87
2022-09-12T18:37:36.187Z,3.30
2022-09-12T18:47:41.603Z,3.90
2022-09-12T18:52:43.810Z,3.30
2022-09-12T19:02:47.916Z,3.65
2022-09-12T19:12:52.056Z,3.47
2022-09-12T19:17:54.205Z,3.40
2022-09-12T19:22:56.262Z,4.25
2022-09-12T19:27:58.372Z,6.32
2022-09-12T19:38:02.599Z,6.50
2022-09-12T19:48:07.395Z,6.78
2022-09-12T19:53:09.835Z,12.93
2022-09-12T19:58:12.733Z,6.15
2022-09-12T20:03:14.922Z,4.28
2022-09-12T20:13:19.019Z,3.78
2022-09-12T20:18:21.261Z,4.25
2022-09-12T20:28:25.563Z,4.00
2022-09-12T20:38:29.848Z,3.50
2022-09-12T20:48:34.237Z,3.58
2022-09-12T20:58:43.029Z,3.78
2022-09-12T21:03:47.056Z,4.05
2022-09-12T21:08:50.537Z,3.75
2022-09-12T21:13:53.716Z,3.70
2022-09-12T21:18:58.389Z,3.40
2022-09-12T21:24:02.933Z,3.88
2022-09-12T21:29:05.041Z,3.65
2022-09-12T21:39:09.305Z,3.95
2022-09-12T21:44:11.484Z,4.22
2022-09-12T21:54:15.511Z,4.75
2022-09-12T22:04:19.507Z,4.70
2022-09-12T22:14:23.751Z,3.65
2022-09-12T22:19:26.449Z,3.47
2022-09-12T22:24:28.612Z,3.60
2022-09-12T22:34:32.679Z,28.27
2022-09-12T22:39:34.750Z,3.90
2022-09-12T22:44:36.900Z,3.53
2022-09-12T22:54:40.943Z,3.67
2022-09-12T23:04:46.802Z,3.97
2022-09-12T23:09:48.841Z,4.15
2022-09-12T23:14:50.960Z,3.85
2022-09-12T23:24:55.113Z,3.47
2022-09-12T23:34:59.388Z,3.42
2022-09-12T23:45:04.074Z,3.78
2022-09-12T23:50:06.694Z,4.38
2022-09-12T23:55:09.345Z,3.92
